sensor_id;sensor_type;location;lat;lon;timestamp;temperature;humidity
29281;DHT22;25048;49.590;11.026;2023-07-24T00:01:43;18.10;99.90
29281;DHT22;25048;49.590;11.026;2023-07-24T00:04:11;18.20;99.90
29281;DHT22;25048;49.590;11.026;2023-07-24T00:06:38;18.20;99.90
29281;DHT22;25048;49.590;11.026;2023-07-24T00:09:06;18.30;99.90
29281;DHT22;25048;49.590;11.026;2023-07-24T00:11:33;18.50;99.90
29281;DHT22;25048;49.590;11.026;2023-07-24T00:14:01;18.50;99.90
29281;DHT22;25048;49.590;11.026;2023-07-24T00:16:28;18.50;99.90
29281;DHT22;25048;49.590;11.026;2023-07-24T00:18:56;18.60;99.90
29281;DHT22;25048;49.590;11.026;2023-07-24T00:21:23;18.50;99.90
29281;DHT22;25048;49.590;11.026;2023-07-24T00:23:51;18.30;99.90
29281;DHT22;25048;49.590;11.026;2023-07-24T00:26:18;18.20;99.90
29281;DHT22;25048;49.590;11.026;2023-07-24T00:28:46;18.10;99.90
29281;DHT22;25048;49.590;11.026;2023-07-24T00:31:13;18.00;99.90
29281;DHT22;25048;49.590;11.026;2023-07-24T00:33:41;17.90;99.90
29281;DHT22;25048;49.590;11.026;2023-07-24T00:36:09;17.70;99.90
29281;DHT22;25048;49.590;11.026;2023-07-24T00:38:36;17.70;99.90
29281;DHT22;25048;49.590;11.026;2023-07-24T00:41:04;17.60;99.90
29281;DHT22;25048;49.590;11.026;2023-07-24T00:43:31;17.60;99.90
29281;DHT22;25048;49.590;11.026;2023-07-24T00:45:59;17.50;99.90
29281;DHT22;25048;49.590;11.026;2023-07-24T00:48:27;17.50;99.90
29281;DHT22;25048;49.590;11.026;2023-07-24T00:50:54;17.50;99.90
29281;DHT22;25048;49.590;11.026;2023-07-24T00:53:23;17.50;99.90
29281;DHT22;25048;49.590;11.026;2023-07-24T00:55:50;17.50;99.90
29281;DHT22;25048;49.590;11.026;2023-07-24T00:58:19;17.40;99.90
29281;DHT22;25048;49.590;11.026;2023-07-24T01:00:47;17.20;99.90
29281;DHT22;25048;49.590;11.026;2023-07-24T01:03:14;17.00;99.90
29281;DHT22;25048;49.590;11.026;2023-07-24T01:05:42;16.90;99.90
29281;DHT22;25048;49.590;11.026;2023-07-24T01:08:09;16.80;99.90
29281;DHT22;25048;49.590;11.026;2023-07-24T01:10:37;16.70;99.90
29281;DHT22;25048;49.590;11.026;2023-07-24T01:13:16;16.60;99.90
29281;DHT22;25048;49.590;11.026;2023-07-24T01:16:02;16.50;99.90
29281;DHT22;25048;49.590;11.026;2023-07-24T01:18:30;16.40;99.90
29281;DHT22;25048;49.590;11.026;2023-07-24T01:20:59;16.40;99.90
29281;DHT22;25048;49.590;11.026;2023-07-24T01:23:46;16.30;99.90
29281;DHT22;25048;49.590;11.026;2023-07-24T01:26:15;16.30;99.90
29281;DHT22;25048;49.590;11.026;2023-07-24T01:28:42;16.30;99.90
29281;DHT22;25048;49.590;11.026;2023-07-24T01:31:10;16.30;99.90
29281;DHT22;25048;49.590;11.026;2023-07-24T01:33:38;16.20;99.90
29281;DHT22;25048;49.590;11.026;2023-07-24T01:36:06;16.20;99.90
29281;DHT22;25048;49.590;11.026;2023-07-24T01:38:35;16.20;99.90
29281;DHT22;25048;49.590;11.026;2023-07-24T01:41:04;16.20;99.90
29281;DHT22;25048;49.590;11.026;2023-07-24T01:43:31;16.20;99.90
29281;DHT22;25048;49.590;11.026;2023-07-24T01:45:59;16.10;99.90
29281;DHT22;25048;49.590;11.026;2023-07-24T01:48:26;16.00;99.90
29281;DHT22;25048;49.590;11.026;2023-07-24T01:50:54;16.00;99.90
29281;DHT22;25048;49.590;11.026;2023-07-24T01:53:21;15.90;99.90
29281;DHT22;25048;49.590;11.026;2023-07-24T01:55:49;15.90;99.90
29281;DHT22;25048;49.590;11.026;2023-07-24T01:58:16;15.90;99.90
29281;DHT22;25048;49.590;11.026;2023-07-24T02:00:44;15.90;99.90
29281;DHT22;25048;49.590;11.026;2023-07-24T02:03:11;15.90;99.90
29281;DHT22;25048;49.590;11.026;2023-07-24T02:05:39;15.90;99.90
29281;DHT22;25048;49.590;11.026;2023-07-24T02:08:06;15.90;99.90
29281;DHT22;25048;49.590;11.026;2023-07-24T02:10:38;15.90;99.90
29281;DHT22;25048;49.590;11.026;2023-07-24T02:13:06;15.80;99.90
29281;DHT22;25048;49.590;11.026;2023-07-24T02:15:34;15.90;99.90
29281;DHT22;25048;49.590;11.026;2023-07-24T02:18:01;15.80;99.90
29281;DHT22;25048;49.590;11.026;2023-07-24T02:20:29;15.80;99.90
29281;DHT22;25048;49.590;11.026;2023-07-24T02:22:56;15.80;99.90
29281;DHT22;25048;49.590;11.026;2023-07-24T02:25:24;15.70;99.90
29281;DHT22;25048;49.590;11.026;2023-07-24T02:27:51;15.70;99.90
29281;DHT22;25048;49.590;11.026;2023-07-24T02:30:19;15.70;99.90
29281;DHT22;25048;49.590;11.026;2023-07-24T02:32:46;15.60;99.90
29281;DHT22;25048;49.590;11.026;2023-07-24T02:35:14;15.60;99.90
29281;DHT22;25048;49.590;11.026;2023-07-24T02:37:42;15.50;99.90
29281;DHT22;25048;49.590;11.026;2023-07-24T02:40:10;15.50;99.90
29281;DHT22;25048;49.590;11.026;2023-07-24T02:42:37;15.50;99.90
29281;DHT22;25048;49.590;11.026;2023-07-24T02:45:06;15.50;99.90
29281;DHT22;25048;49.590;11.026;2023-07-24T02:47:35;15.50;99.90
29281;DHT22;25048;49.590;11.026;2023-07-24T02:50:03;15.50;99.90
29281;DHT22;25048;49.590;11.026;2023-07-24T02:52:30;15.40;99.90
29281;DHT22;25048;49.590;11.026;2023-07-24T02:54:58;15.40;99.90
29281;DHT22;25048;49.590;11.026;2023-07-24T02:57:25;15.40;99.90
29281;DHT22;25048;49.590;11.026;2023-07-24T02:59:53;15.40;99.90
29281;DHT22;25048;49.590;11.026;2023-07-24T03:02:20;15.40;99.90
29281;DHT22;25048;49.590;11.026;2023-07-24T03:04:48;15.40;99.90
29281;DHT22;25048;49.590;11.026;2023-07-24T03:07:16;15.30;99.90
29281;DHT22;25048;49.590;11.026;2023-07-24T03:09:44;15.40;99.90
29281;DHT22;25048;49.590;11.026;2023-07-24T03:12:11;15.40;99.90
29281;DHT22;25048;49.590;11.026;2023-07-24T03:14:39;15.40;99.90
29281;DHT22;25048;49.590;11.026;2023-07-24T03:17:06;15.40;99.90
29281;DHT22;25048;49.590;11.026;2023-07-24T03:19:34;15.40;99.90
29281;DHT22;25048;49.590;11.026;2023-07-24T03:22:01;15.40;99.90
29281;DHT22;25048;49.590;11.026;2023-07-24T03:24:29;15.40;99.90
29281;DHT22;25048;49.590;11.026;2023-07-24T03:26:56;15.40;99.90
29281;DHT22;25048;49.590;11.026;2023-07-24T03:29:24;15.40;99.90
29281;DHT22;25048;49.590;11.026;2023-07-24T03:31:51;15.40;99.90
29281;DHT22;25048;49.590;11.026;2023-07-24T03:34:19;15.40;99.90
29281;DHT22;25048;49.590;11.026;2023-07-24T03:36:46;15.40;99.90
29281;DHT22;25048;49.590;11.026;2023-07-24T03:39:14;15.40;99.90
29281;DHT22;25048;49.590;11.026;2023-07-24T03:41:42;15.40;99.90
29281;DHT22;25048;49.590;11.026;2023-07-24T03:44:10;15.50;99.90
29281;DHT22;25048;49.590;11.026;2023-07-24T03:46:37;15.50;99.90
29281;DHT22;25048;49.590;11.026;2023-07-24T03:49:05;15.50;99.90
29281;DHT22;25048;49.590;11.026;2023-07-24T03:51:32;15.50;99.90
29281;DHT22;25048;49.590;11.026;2023-07-24T03:54:00;15.50;99.90
29281;DHT22;25048;49.590;11.026;2023-07-24T03:56:27;15.40;99.90
29281;DHT22;25048;49.590;11.026;2023-07-24T03:58:55;15.40;99.90
29281;DHT22;25048;49.590;11.026;2023-07-24T04:01:22;15.40;99.90
29281;DHT22;25048;49.590;11.026;2023-07-24T04:03:50;15.40;99.90
29281;DHT22;25048;49.590;11.026;2023-07-24T04:06:17;15.40;99.90
29281;DHT22;25048;49.590;11.026;2023-07-24T04:08:45;15.50;99.90
29281;DHT22;25048;49.590;11.026;2023-07-24T04:11:12;15.40;99.90
29281;DHT22;25048;49.590;11.026;2023-07-24T04:13:40;15.40;99.90
29281;DHT22;25048;49.590;11.026;2023-07-24T04:16:07;15.30;99.90
29281;DHT22;25048;49.590;11.026;2023-07-24T04:18:35;15.30;99.90
29281;DHT22;25048;49.590;11.026;2023-07-24T04:21:02;15.40;99.90
29281;DHT22;25048;49.590;11.026;2023-07-24T04:23:30;15.30;99.90
29281;DHT22;25048;49.590;11.026;2023-07-24T04:25:57;15.40;99.90
29281;DHT22;25048;49.590;11.026;2023-07-24T04:28:25;15.40;99.90
29281;DHT22;25048;49.590;11.026;2023-07-24T04:30:52;15.40;99.90
29281;DHT22;25048;49.590;11.026;2023-07-24T04:33:20;15.40;99.90
29281;DHT22;25048;49.590;11.026;2023-07-24T04:35:50;15.40;99.90
29281;DHT22;25048;49.590;11.026;2023-07-24T04:38:18;15.40;99.90
29281;DHT22;25048;49.590;11.026;2023-07-24T04:40:45;15.40;99.90
29281;DHT22;25048;49.590;11.026;2023-07-24T04:43:13;15.50;99.90
29281;DHT22;25048;49.590;11.026;2023-07-24T04:45:40;15.50;99.90
29281;DHT22;25048;49.590;11.026;2023-07-24T04:48:08;15.60;99.90
29281;DHT22;25048;49.590;11.026;2023-07-24T04:50:35;15.70;99.90
29281;DHT22;25048;49.590;11.026;2023-07-24T04:53:03;15.90;99.90
29281;DHT22;25048;49.590;11.026;2023-07-24T04:55:30;16.00;99.90
29281;DHT22;25048;49.590;11.026;2023-07-24T04:57:58;16.10;99.90
29281;DHT22;25048;49.590;11.026;2023-07-24T05:00:25;16.20;99.90
29281;DHT22;25048;49.590;11.026;2023-07-24T05:02:53;16.20;99.90
29281;DHT22;25048;49.590;11.026;2023-07-24T05:05:20;16.20;99.90
29281;DHT22;25048;49.590;11.026;2023-07-24T05:07:48;16.20;99.90
29281;DHT22;25048;49.590;11.026;2023-07-24T05:10:15;16.20;99.90
29281;DHT22;25048;49.590;11.026;2023-07-24T05:12:43;16.20;99.90
29281;DHT22;25048;49.590;11.026;2023-07-24T05:15:10;16.20;99.90
29281;DHT22;25048;49.590;11.026;2023-07-24T05:17:38;16.20;99.90
29281;DHT22;25048;49.590;11.026;2023-07-24T05:20:07;16.30;99.90
29281;DHT22;25048;49.590;11.026;2023-07-24T05:22:34;16.30;99.90
29281;DHT22;25048;49.590;11.026;2023-07-24T05:25:02;16.30;99.90
29281;DHT22;25048;49.590;11.026;2023-07-24T05:27:29;16.20;99.90
29281;DHT22;25048;49.590;11.026;2023-07-24T05:29:57;16.30;99.90
29281;DHT22;25048;49.590;11.026;2023-07-24T05:32:24;16.30;99.90
29281;DHT22;25048;49.590;11.026;2023-07-24T05:34:52;16.30;99.90
29281;DHT22;25048;49.590;11.026;2023-07-24T05:37:19;16.40;99.90
29281;DHT22;25048;49.590;11.026;2023-07-24T05:39:47;16.60;99.90
29281;DHT22;25048;49.590;11.026;2023-07-24T05:42:14;16.70;99.90
29281;DHT22;25048;49.590;11.026;2023-07-24T05:44:42;16.80;99.90
29281;DHT22;25048;49.590;11.026;2023-07-24T05:47:09;16.90;99.90
29281;DHT22;25048;49.590;11.026;2023-07-24T05:49:37;17.00;99.90
29281;DHT22;25048;49.590;11.026;2023-07-24T05:52:04;17.30;99.90
29281;DHT22;25048;49.590;11.026;2023-07-24T05:54:32;17.60;99.90
29281;DHT22;25048;49.590;11.026;2023-07-24T05:56:59;17.80;99.90
29281;DHT22;25048;49.590;11.026;2023-07-24T05:59:27;18.20;99.90
29281;DHT22;25048;49.590;11.026;2023-07-24T06:01:54;18.50;99.90
29281;DHT22;25048;49.590;11.026;2023-07-24T06:04:22;18.70;99.90
29281;DHT22;25048;49.590;11.026;2023-07-24T06:06:49;18.80;99.90
29281;DHT22;25048;49.590;11.026;2023-07-24T06:09:17;18.90;99.90
29281;DHT22;25048;49.590;11.026;2023-07-24T06:11:44;19.00;99.90
29281;DHT22;25048;49.590;11.026;2023-07-24T06:14:12;19.00;99.90
29281;DHT22;25048;49.590;11.026;2023-07-24T06:16:39;19.10;99.90
29281;DHT22;25048;49.590;11.026;2023-07-24T06:19:07;19.10;99.90
29281;DHT22;25048;49.590;11.026;2023-07-24T06:21:34;19.10;99.90
29281;DHT22;25048;49.590;11.026;2023-07-24T06:24:02;19.10;99.90
29281;DHT22;25048;49.590;11.026;2023-07-24T06:26:29;19.10;99.90
29281;DHT22;25048;49.590;11.026;2023-07-24T06:28:57;19.10;99.90
29281;DHT22;25048;49.590;11.026;2023-07-24T06:31:24;19.10;99.90
29281;DHT22;25048;49.590;11.026;2023-07-24T06:33:52;19.10;99.90
29281;DHT22;25048;49.590;11.026;2023-07-24T06:36:19;19.10;99.90
29281;DHT22;25048;49.590;11.026;2023-07-24T06:38:47;19.10;99.90
29281;DHT22;25048;49.590;11.026;2023-07-24T06:41:15;19.10;99.90
29281;DHT22;25048;49.590;11.026;2023-07-24T06:43:42;19.20;99.90
29281;DHT22;25048;49.590;11.026;2023-07-24T06:46:10;19.30;99.90
29281;DHT22;25048;49.590;11.026;2023-07-24T06:48:37;19.30;99.90
29281;DHT22;25048;49.590;11.026;2023-07-24T06:51:05;19.50;99.90
29281;DHT22;25048;49.590;11.026;2023-07-24T06:53:32;19.60;99.90
29281;DHT22;25048;49.590;11.026;2023-07-24T06:56:00;19.80;99.90
29281;DHT22;25048;49.590;11.026;2023-07-24T06:58:27;20.00;99.90
29281;DHT22;25048;49.590;11.026;2023-07-24T07:00:55;20.20;99.90
29281;DHT22;25048;49.590;11.026;2023-07-24T07:03:22;20.40;99.90
29281;DHT22;25048;49.590;11.026;2023-07-24T07:05:50;20.60;99.90
29281;DHT22;25048;49.590;11.026;2023-07-24T07:08:17;20.70;99.90
29281;DHT22;25048;49.590;11.026;2023-07-24T07:10:45;20.70;99.90
29281;DHT22;25048;49.590;11.026;2023-07-24T07:13:14;20.70;99.90
29281;DHT22;25048;49.590;11.026;2023-07-24T07:15:41;20.70;99.90
29281;DHT22;25048;49.590;11.026;2023-07-24T07:18:09;20.70;99.90
29281;DHT22;25048;49.590;11.026;2023-07-24T07:20:36;20.70;99.90
29281;DHT22;25048;49.590;11.026;2023-07-24T07:23:04;20.80;99.90
29281;DHT22;25048;49.590;11.026;2023-07-24T07:25:31;20.90;99.90
29281;DHT22;25048;49.590;11.026;2023-07-24T07:27:59;21.00;99.90
29281;DHT22;25048;49.590;11.026;2023-07-24T07:30:26;21.00;99.90
29281;DHT22;25048;49.590;11.026;2023-07-24T07:32:54;21.00;99.90
29281;DHT22;25048;49.590;11.026;2023-07-24T07:35:21;21.00;99.90
29281;DHT22;25048;49.590;11.026;2023-07-24T07:37:49;20.90;99.90
29281;DHT22;25048;49.590;11.026;2023-07-24T07:40:16;20.90;99.90
29281;DHT22;25048;49.590;11.026;2023-07-24T07:42:44;20.90;99.90
29281;DHT22;25048;49.590;11.026;2023-07-24T07:45:11;20.90;99.90
29281;DHT22;25048;49.590;11.026;2023-07-24T07:47:39;20.80;99.90
29281;DHT22;25048;49.590;11.026;2023-07-24T07:50:06;20.90;99.90
29281;DHT22;25048;49.590;11.026;2023-07-24T07:52:34;20.90;99.90
29281;DHT22;25048;49.590;11.026;2023-07-24T07:55:02;20.90;99.90
29281;DHT22;25048;49.590;11.026;2023-07-24T07:57:29;21.00;99.90
29281;DHT22;25048;49.590;11.026;2023-07-24T07:59:57;21.00;99.90
29281;DHT22;25048;49.590;11.026;2023-07-24T08:02:24;21.00;99.90
29281;DHT22;25048;49.590;11.026;2023-07-24T08:04:52;20.90;99.90
29281;DHT22;25048;49.590;11.026;2023-07-24T08:07:19;20.90;99.90
29281;DHT22;25048;49.590;11.026;2023-07-24T08:09:47;20.90;99.90
29281;DHT22;25048;49.590;11.026;2023-07-24T08:12:14;20.90;99.90
29281;DHT22;25048;49.590;11.026;2023-07-24T08:14:42;20.90;99.90
29281;DHT22;25048;49.590;11.026;2023-07-24T08:17:09;20.90;99.90
29281;DHT22;25048;49.590;11.026;2023-07-24T08:19:37;20.90;99.90
29281;DHT22;25048;49.590;11.026;2023-07-24T08:22:04;20.90;99.90
29281;DHT22;25048;49.590;11.026;2023-07-24T08:24:35;21.00;99.90
29281;DHT22;25048;49.590;11.026;2023-07-24T08:27:03;21.10;99.90
29281;DHT22;25048;49.590;11.026;2023-07-24T08:29:31;21.20;99.90
29281;DHT22;25048;49.590;11.026;2023-07-24T08:31:59;21.40;99.90
29281;DHT22;25048;49.590;11.026;2023-07-24T08:34:27;21.50;99.90
29281;DHT22;25048;49.590;11.026;2023-07-24T08:36:54;21.60;99.90
29281;DHT22;25048;49.590;11.026;2023-07-24T08:39:22;21.80;99.90
29281;DHT22;25048;49.590;11.026;2023-07-24T08:41:50;21.80;99.90
29281;DHT22;25048;49.590;11.026;2023-07-24T08:44:18;22.00;99.90
29281;DHT22;25048;49.590;11.026;2023-07-24T08:46:45;22.10;99.90
29281;DHT22;25048;49.590;11.026;2023-07-24T08:49:15;22.20;99.90
29281;DHT22;25048;49.590;11.026;2023-07-24T08:51:44;22.30;99.90
29281;DHT22;25048;49.590;11.026;2023-07-24T08:54:12;22.40;99.90
29281;DHT22;25048;49.590;11.026;2023-07-24T08:56:39;22.50;99.90
29281;DHT22;25048;49.590;11.026;2023-07-24T08:59:08;22.60;99.90
29281;DHT22;25048;49.590;11.026;2023-07-24T09:01:36;22.80;99.90
29281;DHT22;25048;49.590;11.026;2023-07-24T09:04:03;22.90;99.90
29281;DHT22;25048;49.590;11.026;2023-07-24T09:06:31;23.00;99.90
29281;DHT22;25048;49.590;11.026;2023-07-24T09:08:59;23.00;99.90
29281;DHT22;25048;49.590;11.026;2023-07-24T09:11:26;23.10;99.90
29281;DHT22;25048;49.590;11.026;2023-07-24T09:13:54;23.10;99.90
29281;DHT22;25048;49.590;11.026;2023-07-24T09:16:25;23.20;99.90
29281;DHT22;25048;49.590;11.026;2023-07-24T09:18:53;23.20;99.90
29281;DHT22;25048;49.590;11.026;2023-07-24T09:21:30;23.20;99.90
29281;DHT22;25048;49.590;11.026;2023-07-24T09:24:10;23.30;99.90
29281;DHT22;25048;49.590;11.026;2023-07-24T09:26:52;23.30;99.90
29281;DHT22;25048;49.590;11.026;2023-07-24T09:29:19;23.30;99.90
29281;DHT22;25048;49.590;11.026;2023-07-24T09:31:47;23.30;99.90
29281;DHT22;25048;49.590;11.026;2023-07-24T09:34:17;23.40;99.90
29281;DHT22;25048;49.590;11.026;2023-07-24T09:36:45;23.40;99.90
29281;DHT22;25048;49.590;11.026;2023-07-24T09:39:12;23.50;99.90
29281;DHT22;25048;49.590;11.026;2023-07-24T09:41:40;23.60;99.90
29281;DHT22;25048;49.590;11.026;2023-07-24T09:44:08;23.60;99.90
29281;DHT22;25048;49.590;11.026;2023-07-24T09:46:37;23.50;99.90
29281;DHT22;25048;49.590;11.026;2023-07-24T09:49:04;23.40;99.90
29281;DHT22;25048;49.590;11.026;2023-07-24T09:51:32;23.40;99.90
29281;DHT22;25048;49.590;11.026;2023-07-24T09:54:06;23.30;99.90
29281;DHT22;25048;49.590;11.026;2023-07-24T09:56:32;23.20;99.90
29281;DHT22;25048;49.590;11.026;2023-07-24T09:59:01;23.10;99.90
29281;DHT22;25048;49.590;11.026;2023-07-24T10:01:31;23.00;99.90
29281;DHT22;25048;49.590;11.026;2023-07-24T10:03:59;22.90;99.90
29281;DHT22;25048;49.590;11.026;2023-07-24T10:06:28;22.80;99.90
29281;DHT22;25048;49.590;11.026;2023-07-24T10:08:57;22.70;99.90
29281;DHT22;25048;49.590;11.026;2023-07-24T10:11:26;22.60;99.90
29281;DHT22;25048;49.590;11.026;2023-07-24T10:13:54;22.50;99.90
29281;DHT22;25048;49.590;11.026;2023-07-24T10:16:22;22.20;99.90
29281;DHT22;25048;49.590;11.026;2023-07-24T10:18:49;22.10;99.90
29281;DHT22;25048;49.590;11.026;2023-07-24T10:21:17;22.00;99.90
29281;DHT22;25048;49.590;11.026;2023-07-24T10:23:45;22.00;99.90
29281;DHT22;25048;49.590;11.026;2023-07-24T10:26:13;21.90;99.90
29281;DHT22;25048;49.590;11.026;2023-07-24T10:28:42;21.90;99.90
29281;DHT22;25048;49.590;11.026;2023-07-24T10:31:24;21.80;99.90
29281;DHT22;25048;49.590;11.026;2023-07-24T10:33:53;21.90;99.90
29281;DHT22;25048;49.590;11.026;2023-07-24T10:36:23;22.00;99.90
29281;DHT22;25048;49.590;11.026;2023-07-24T10:38:54;22.10;99.90
29281;DHT22;25048;49.590;11.026;2023-07-24T10:41:23;22.30;99.90
29281;DHT22;25048;49.590;11.026;2023-07-24T10:43:52;22.40;99.90
29281;DHT22;25048;49.590;11.026;2023-07-24T10:46:21;22.40;99.90
29281;DHT22;25048;49.590;11.026;2023-07-24T10:48:50;22.40;99.90
29281;DHT22;25048;49.590;11.026;2023-07-24T10:51:18;22.40;99.90
29281;DHT22;25048;49.590;11.026;2023-07-24T10:53:49;22.40;99.90
29281;DHT22;25048;49.590;11.026;2023-07-24T10:56:17;22.40;99.90
29281;DHT22;25048;49.590;11.026;2023-07-24T10:58:45;22.40;99.90
29281;DHT22;25048;49.590;11.026;2023-07-24T11:01:12;22.30;99.90
29281;DHT22;25048;49.590;11.026;2023-07-24T11:03:42;22.30;99.90
29281;DHT22;25048;49.590;11.026;2023-07-24T11:06:15;22.20;99.90
29281;DHT22;25048;49.590;11.026;2023-07-24T11:08:50;22.20;99.90
29281;DHT22;25048;49.590;11.026;2023-07-24T11:11:11;22.20;99.90
29281;DHT22;25048;49.590;11.026;2023-07-24T11:13:40;22.20;99.90
29281;DHT22;25048;49.590;11.026;2023-07-24T11:16:09;22.20;99.90
29281;DHT22;25048;49.590;11.026;2023-07-24T11:18:48;22.20;99.90
29281;DHT22;25048;49.590;11.026;2023-07-24T11:21:15;22.20;99.90
29281;DHT22;25048;49.590;11.026;2023-07-24T11:23:48;22.20;99.90
29281;DHT22;25048;49.590;11.026;2023-07-24T11:26:18;22.20;99.90
29281;DHT22;25048;49.590;11.026;2023-07-24T11:28:45;22.20;99.90
29281;DHT22;25048;49.590;11.026;2023-07-24T11:31:12;22.20;99.90
29281;DHT22;25048;49.590;11.026;2023-07-24T11:33:42;22.20;99.90
29281;DHT22;25048;49.590;11.026;2023-07-24T11:36:10;22.20;99.90
29281;DHT22;25048;49.590;11.026;2023-07-24T11:38:38;22.10;99.90
29281;DHT22;25048;49.590;11.026;2023-07-24T11:41:05;22.10;99.90
29281;DHT22;25048;49.590;11.026;2023-07-24T11:43:35;22.20;99.90
29281;DHT22;25048;49.590;11.026;2023-07-24T11:46:03;22.30;99.90
29281;DHT22;25048;49.590;11.026;2023-07-24T11:48:30;22.40;99.90
29281;DHT22;25048;49.590;11.026;2023-07-24T11:50:58;22.50;99.90
29281;DHT22;25048;49.590;11.026;2023-07-24T11:53:27;22.60;99.90
29281;DHT22;25048;49.590;11.026;2023-07-24T11:55:57;22.80;99.90
29281;DHT22;25048;49.590;11.026;2023-07-24T11:58:29;22.90;99.90
29281;DHT22;25048;49.590;11.026;2023-07-24T12:00:57;23.00;99.90
29281;DHT22;25048;49.590;11.026;2023-07-24T12:03:26;23.10;99.90
29281;DHT22;25048;49.590;11.026;2023-07-24T12:05:56;23.10;99.90
29281;DHT22;25048;49.590;11.026;2023-07-24T12:08:34;23.20;99.90
29281;DHT22;25048;49.590;11.026;2023-07-24T12:11:02;23.30;99.90
29281;DHT22;25048;49.590;11.026;2023-07-24T12:13:30;23.30;99.90
29281;DHT22;25048;49.590;11.026;2023-07-24T12:15:58;23.40;99.90
29281;DHT22;25048;49.590;11.026;2023-07-24T12:18:26;23.50;99.90
29281;DHT22;25048;49.590;11.026;2023-07-24T12:20:53;23.70;99.90
29281;DHT22;25048;49.590;11.026;2023-07-24T12:23:21;23.80;99.90
29281;DHT22;25048;49.590;11.026;2023-07-24T12:25:49;23.90;99.90
29281;DHT22;25048;49.590;11.026;2023-07-24T12:28:16;24.00;99.90
29281;DHT22;25048;49.590;11.026;2023-07-24T12:30:44;24.00;99.90
29281;DHT22;25048;49.590;11.026;2023-07-24T12:33:11;24.10;99.90
29281;DHT22;25048;49.590;11.026;2023-07-24T12:35:39;24.10;99.90
29281;DHT22;25048;49.590;11.026;2023-07-24T12:38:06;24.00;99.90
29281;DHT22;25048;49.590;11.026;2023-07-24T12:40:34;23.90;99.90
29281;DHT22;25048;49.590;11.026;2023-07-24T12:43:01;23.80;99.90
29281;DHT22;25048;49.590;11.026;2023-07-24T12:45:29;23.80;99.90
29281;DHT22;25048;49.590;11.026;2023-07-24T12:47:56;23.70;99.90
29281;DHT22;25048;49.590;11.026;2023-07-24T12:50:24;23.70;99.90
29281;DHT22;25048;49.590;11.026;2023-07-24T12:52:51;23.60;99.90
29281;DHT22;25048;49.590;11.026;2023-07-24T12:55:19;23.60;99.90
29281;DHT22;25048;49.590;11.026;2023-07-24T12:57:46;23.50;99.90
29281;DHT22;25048;49.590;11.026;2023-07-24T13:00:14;23.40;99.90
29281;DHT22;25048;49.590;11.026;2023-07-24T13:02:41;23.40;99.90
29281;DHT22;25048;49.590;11.026;2023-07-24T13:05:09;23.60;99.90
29281;DHT22;25048;49.590;11.026;2023-07-24T13:07:36;23.80;99.90
29281;DHT22;25048;49.590;11.026;2023-07-24T13:10:04;24.00;99.90
29281;DHT22;25048;49.590;11.026;2023-07-24T13:12:32;24.20;99.90
29281;DHT22;25048;49.590;11.026;2023-07-24T13:15:00;24.50;99.90
29281;DHT22;25048;49.590;11.026;2023-07-24T13:17:27;24.80;99.90
29281;DHT22;25048;49.590;11.026;2023-07-24T13:19:56;24.90;99.90
29281;DHT22;25048;49.590;11.026;2023-07-24T13:22:23;25.10;99.90
29281;DHT22;25048;49.590;11.026;2023-07-24T13:24:51;25.70;99.90
29281;DHT22;25048;49.590;11.026;2023-07-24T13:27:18;26.10;99.90
29281;DHT22;25048;49.590;11.026;2023-07-24T13:29:46;26.70;99.90
29281;DHT22;25048;49.590;11.026;2023-07-24T13:32:13;27.10;99.90
29281;DHT22;25048;49.590;11.026;2023-07-24T13:34:42;27.30;99.90
29281;DHT22;25048;49.590;11.026;2023-07-24T13:37:11;27.20;99.90
29281;DHT22;25048;49.590;11.026;2023-07-24T13:39:38;26.80;99.90
29281;DHT22;25048;49.590;11.026;2023-07-24T13:42:06;26.60;99.90
29281;DHT22;25048;49.590;11.026;2023-07-24T13:44:33;26.40;99.90
29281;DHT22;25048;49.590;11.026;2023-07-24T13:47:01;26.50;99.90
29281;DHT22;25048;49.590;11.026;2023-07-24T13:49:29;26.80;99.90
29281;DHT22;25048;49.590;11.026;2023-07-24T13:51:56;27.10;99.90
29281;DHT22;25048;49.590;11.026;2023-07-24T13:54:24;27.00;99.90
29281;DHT22;25048;49.590;11.026;2023-07-24T13:56:51;26.90;99.90
29281;DHT22;25048;49.590;11.026;2023-07-24T13:59:19;26.90;99.90
29281;DHT22;25048;49.590;11.026;2023-07-24T14:01:46;27.10;99.90
29281;DHT22;25048;49.590;11.026;2023-07-24T14:04:14;27.40;99.90
29281;DHT22;25048;49.590;11.026;2023-07-24T14:06:41;27.60;99.90
29281;DHT22;25048;49.590;11.026;2023-07-24T14:09:09;27.50;99.90
29281;DHT22;25048;49.590;11.026;2023-07-24T14:11:36;27.20;99.90
29281;DHT22;25048;49.590;11.026;2023-07-24T14:14:04;27.00;99.90
29281;DHT22;25048;49.590;11.026;2023-07-24T14:16:32;26.70;99.90
29281;DHT22;25048;49.590;11.026;2023-07-24T14:18:59;26.80;99.90
29281;DHT22;25048;49.590;11.026;2023-07-24T14:21:26;27.10;99.90
29281;DHT22;25048;49.590;11.026;2023-07-24T14:23:54;27.20;99.90
29281;DHT22;25048;49.590;11.026;2023-07-24T14:26:22;27.10;99.90
29281;DHT22;25048;49.590;11.026;2023-07-24T14:28:49;26.90;99.90
29281;DHT22;25048;49.590;11.026;2023-07-24T14:31:17;26.70;99.90
29281;DHT22;25048;49.590;11.026;2023-07-24T14:33:44;26.60;99.90
29281;DHT22;25048;49.590;11.026;2023-07-24T14:36:12;26.30;99.90
29281;DHT22;25048;49.590;11.026;2023-07-24T14:38:39;26.10;99.90
29281;DHT22;25048;49.590;11.026;2023-07-24T14:41:07;25.90;99.90
29281;DHT22;25048;49.590;11.026;2023-07-24T14:43:34;25.80;99.90
29281;DHT22;25048;49.590;11.026;2023-07-24T14:46:02;25.80;99.90
29281;DHT22;25048;49.590;11.026;2023-07-24T14:48:29;26.10;99.90
29281;DHT22;25048;49.590;11.026;2023-07-24T14:50:57;26.50;99.90
29281;DHT22;25048;49.590;11.026;2023-07-24T14:53:24;26.80;99.90
29281;DHT22;25048;49.590;11.026;2023-07-24T14:55:52;27.20;99.90
29281;DHT22;25048;49.590;11.026;2023-07-24T14:58:19;27.40;99.90
29281;DHT22;25048;49.590;11.026;2023-07-24T15:00:47;27.60;99.90
29281;DHT22;25048;49.590;11.026;2023-07-24T15:03:14;27.80;99.90
29281;DHT22;25048;49.590;11.026;2023-07-24T15:05:42;27.90;99.90
29281;DHT22;25048;49.590;11.026;2023-07-24T15:08:09;27.90;99.90
29281;DHT22;25048;49.590;11.026;2023-07-24T15:10:37;27.80;99.80
29281;DHT22;25048;49.590;11.026;2023-07-24T15:13:04;27.70;99.90
29281;DHT22;25048;49.590;11.026;2023-07-24T15:15:32;27.80;99.40
29281;DHT22;25048;49.590;11.026;2023-07-24T15:17:59;27.90;99.70
29281;DHT22;25048;49.590;11.026;2023-07-24T15:20:27;28.10;99.90